createdAt,value
2022-12-08T00:01:36.007Z,100182.48
2022-12-08T00:04:04.826Z,100179.49
2022-12-08T00:06:57.577Z,100179.99
2022-12-08T00:09:39.513Z,100179.68
2022-12-08T00:12:10.624Z,100179.39
2022-12-08T00:14:41.667Z,100183.10
2022-12-08T00:17:11.694Z,100183.98
2022-12-08T00:19:40.754Z,100179.86
2022-12-08T00:22:10.719Z,100185.60
2022-12-08T00:24:40.290Z,100189.01
2022-12-08T00:27:09.795Z,100186.68
2022-12-08T00:29:37.977Z,100187.70
2022-12-08T00:32:06.499Z,100190.60
2022-12-08T00:34:35.252Z,100193.95
2022-12-08T00:37:03.421Z,100192.50
2022-12-08T00:39:32.006Z,100196.14
2022-12-08T00:42:15.033Z,100193.54
2022-12-08T00:44:45.278Z,100200.06
2022-12-08T00:47:14.247Z,100200.73
2022-12-08T00:49:42.455Z,100198.13
2022-12-08T00:52:10.295Z,100198.77
2022-12-08T00:54:38.814Z,100202.43
2022-12-08T00:57:06.739Z,100207.39
2022-12-08T00:59:34.482Z,100213.09
2022-12-08T01:02:02.482Z,100215.21
2022-12-08T01:04:30.549Z,100222.67
2022-12-08T01:06:58.716Z,100224.88
2022-12-08T01:09:26.924Z,100225.86
2022-12-08T01:11:55.176Z,100227.00
2022-12-08T01:14:23.245Z,100225.14
2022-12-08T01:16:51.149Z,100226.66
2022-12-08T01:19:19.391Z,100230.27
2022-12-08T01:21:47.769Z,100231.88
2022-12-08T01:24:18.852Z,100233.67
2022-12-08T01:26:48.413Z,100238.44
2022-12-08T01:29:16.593Z,100239.85
2022-12-08T01:31:44.456Z,100235.59
2022-12-08T01:34:12.943Z,100234.67
2022-12-08T01:36:42.345Z,100232.06
2022-12-08T01:39:18.715Z,100230.96
2022-12-08T01:41:47.906Z,100234.31
2022-12-08T01:44:15.883Z,100229.77
2022-12-08T01:46:46.076Z,100230.80
2022-12-08T01:49:22.788Z,100236.87
2022-12-08T01:52:02.773Z,100233.98
2022-12-08T01:54:36.249Z,100230.20
2022-12-08T01:57:27.139Z,100228.43
2022-12-08T02:00:08.759Z,100226.10
2022-12-08T02:02:49.274Z,100232.16
2022-12-08T02:05:19.136Z,100232.27
2022-12-08T02:07:47.938Z,100228.05
2022-12-08T02:10:20.963Z,100228.97
2022-12-08T02:12:51.733Z,100226.45
2022-12-08T02:15:23.780Z,100231.30
2022-12-08T02:18:21.733Z,100234.81
2022-12-08T02:20:56.275Z,100238.70
2022-12-08T02:23:51.901Z,100245.84
2022-12-08T02:26:44.953Z,100249.88
2022-12-08T02:29:50.708Z,100244.92
2022-12-08T02:32:24.313Z,100242.33
2022-12-08T02:34:58.223Z,100243.99
2022-12-08T02:37:37.659Z,100243.48
2022-12-08T02:40:56.113Z,100242.17
2022-12-08T02:43:35.825Z,100239.31
2022-12-08T02:46:11.250Z,100239.23
2022-12-08T02:48:40.092Z,100244.58
2022-12-08T02:51:08.172Z,100244.55
2022-12-08T02:53:36.997Z,100242.42
2022-12-08T02:56:26.027Z,100243.98
2022-12-08T02:59:23.994Z,100240.33
2022-12-08T03:02:04.738Z,100238.30
2022-12-08T03:04:54.859Z,100234.08
2022-12-08T03:07:35.809Z,100227.16
2022-12-08T03:10:11.278Z,100221.33
2022-12-08T03:12:48.979Z,100218.89
2022-12-08T03:15:20.524Z,100212.69
2022-12-08T03:17:56.314Z,100210.98
2022-12-08T03:20:27.817Z,100205.44
2022-12-08T03:22:58.156Z,100205.52
2022-12-08T03:25:29.919Z,100204.73
2022-12-08T03:27:59.564Z,100204.36
2022-12-08T03:30:31.642Z,100198.70
2022-12-08T03:33:08.009Z,100197.30
2022-12-08T03:35:39.713Z,100191.30
2022-12-08T03:38:11.380Z,100195.27
2022-12-08T03:40:40.365Z,100194.13
2022-12-08T03:43:08.437Z,100198.18
2022-12-08T03:45:36.619Z,100197.95
2022-12-08T03:48:04.895Z,100198.46
2022-12-08T03:50:32.755Z,100199.02
2022-12-08T03:53:01.237Z,100198.31
2022-12-08T03:55:29.208Z,100199.48
2022-12-08T03:57:57.155Z,100203.45
2022-12-08T04:00:25.149Z,100197.77
2022-12-08T04:02:53.064Z,100200.64
2022-12-08T04:05:21.213Z,100199.08
2022-12-08T04:07:49.297Z,100201.27
2022-12-08T04:10:17.648Z,100202.01
2022-12-08T04:12:45.715Z,100200.27
2022-12-08T04:15:13.785Z,100192.36
2022-12-08T04:17:41.659Z,100194.30
2022-12-08T04:20:10.243Z,100194.69
2022-12-08T04:22:38.207Z,100191.67
2022-12-08T04:25:07.186Z,100187.54
2022-12-08T04:27:35.071Z,100190.04
2022-12-08T04:30:03.622Z,100189.52
2022-12-08T04:32:32.038Z,100185.83
2022-12-08T04:34:59.905Z,100183.02
2022-12-08T04:37:28.731Z,100178.66
2022-12-08T04:39:56.556Z,100184.73
2022-12-08T04:42:24.526Z,100184.28
2022-12-08T04:44:52.400Z,100180.19
2022-12-08T04:47:22.329Z,100178.86
2022-12-08T04:49:50.266Z,100175.05
2022-12-08T04:52:18.076Z,100175.81
2022-12-08T04:54:46.105Z,100180.48
2022-12-08T04:57:14.402Z,100179.23
2022-12-08T04:59:42.261Z,100178.31
2022-12-08T05:02:10.579Z,100184.40
2022-12-08T05:04:39.007Z,100179.41
2022-12-08T05:07:07.178Z,100177.92
2022-12-08T05:09:35.273Z,100178.73
2022-12-08T05:12:04.250Z,100175.13
2022-12-08T05:14:32.173Z,100175.69
2022-12-08T05:17:02.608Z,100172.50
2022-12-08T05:19:34.213Z,100168.23
2022-12-08T05:22:02.288Z,100169.29
2022-12-08T05:24:30.461Z,100166.51
2022-12-08T05:26:58.234Z,100168.51
2022-12-08T05:29:26.200Z,100167.89
2022-12-08T05:31:54.228Z,100163.01
2022-12-08T05:34:22.180Z,100158.33
2022-12-08T05:36:50.111Z,100157.72
2022-12-08T05:39:18.484Z,100157.12
2022-12-08T05:41:46.459Z,100152.00
2022-12-08T05:44:14.256Z,100158.35
2022-12-08T05:46:42.348Z,100159.56
2022-12-08T05:49:10.473Z,100161.58
2022-12-08T05:51:38.318Z,100157.42
2022-12-08T05:54:06.207Z,100157.84
2022-12-08T05:56:34.323Z,100157.73
2022-12-08T05:59:04.995Z,100155.25
2022-12-08T06:01:33.513Z,100157.03
2022-12-08T06:04:04.011Z,100153.55
2022-12-08T06:06:35.641Z,100152.89
2022-12-08T06:09:05.182Z,100156.16
2022-12-08T06:11:33.684Z,100156.75
2022-12-08T06:14:02.052Z,100159.11
2022-12-08T06:16:30.758Z,100159.65
2022-12-08T06:18:58.706Z,100161.52
2022-12-08T06:21:26.882Z,100157.48
2022-12-08T06:23:55.269Z,100162.98
2022-12-08T06:26:23.845Z,100162.90
2022-12-08T06:28:52.116Z,100162.00
2022-12-08T06:31:22.669Z,100158.70
2022-12-08T06:33:51.135Z,100155.18
2022-12-08T06:36:22.729Z,100157.14
2022-12-08T06:38:51.164Z,100155.57
2022-12-08T06:41:19.134Z,100155.23
2022-12-08T06:43:47.826Z,100155.67
2022-12-08T06:46:18.916Z,100157.29
2022-12-08T06:48:47.861Z,100156.15
2022-12-08T06:51:18.672Z,100152.71
2022-12-08T06:53:47.492Z,100152.75
2022-12-08T06:56:16.282Z,100150.73
2022-12-08T06:58:48.938Z,100149.75
2022-12-08T07:01:20.671Z,100147.77
2022-12-08T07:03:48.782Z,100146.38
2022-12-08T07:06:23.066Z,100147.50
2022-12-08T07:08:51.277Z,100145.45
2022-12-08T07:11:22.299Z,100146.48
2022-12-08T07:13:51.215Z,100144.45
2022-12-08T07:16:19.795Z,100146.64
2022-12-08T07:18:48.810Z,100152.00
2022-12-08T07:21:17.487Z,100146.39
2022-12-08T07:23:49.250Z,100145.48
2022-12-08T07:26:19.666Z,100140.64
2022-12-08T07:28:47.529Z,100138.49
2022-12-08T07:31:21.932Z,100138.99
2022-12-08T07:33:53.135Z,100136.89
2022-12-08T07:36:22.097Z,100132.49
2022-12-08T07:38:51.164Z,100125.02
2022-12-08T07:41:23.544Z,100126.50
2022-12-08T07:43:53.936Z,100127.10
2022-12-08T07:46:24.020Z,100128.88
2022-12-08T07:48:53.647Z,100126.54
2022-12-08T07:51:21.691Z,100124.58
2022-12-08T07:53:54.067Z,100120.88
2022-12-08T07:56:23.681Z,100119.84
2022-12-08T07:58:51.642Z,100116.66
2022-12-08T08:01:31.352Z,100113.49
2022-12-08T08:04:02.050Z,100113.41
2022-12-08T08:06:31.654Z,100113.73
2022-12-08T08:08:59.695Z,100112.15
2022-12-08T08:11:27.765Z,100109.52
2022-12-08T08:13:57.290Z,100106.51
2022-12-08T08:16:25.267Z,100110.26
2022-12-08T08:18:54.018Z,100112.66
2022-12-08T08:21:44.941Z,100112.70
2022-12-08T08:24:10.913Z,100114.57
2022-12-08T08:26:39.758Z,100111.63
2022-12-08T08:29:07.731Z,100114.45
2022-12-08T08:31:35.656Z,100115.44
2022-12-08T08:34:06.491Z,100114.27
2022-12-08T08:36:34.718Z,100114.59
2022-12-08T08:39:04.175Z,100115.98
2022-12-08T08:41:32.845Z,100118.27
2022-12-08T08:44:01.487Z,100124.61
2022-12-08T08:46:29.728Z,100123.81
2022-12-08T08:48:58.354Z,100123.33
2022-12-08T08:51:26.620Z,100127.48
2022-12-08T08:53:54.591Z,100129.69
2022-12-08T08:56:22.565Z,100127.30
2022-12-08T08:58:52.413Z,100125.41
2022-12-08T09:01:24.627Z,100128.30
2022-12-08T09:03:53.128Z,100117.55
2022-12-08T09:06:21.741Z,100113.63
2022-12-08T09:08:50.715Z,100118.20
2022-12-08T09:11:18.852Z,100116.64
2022-12-08T09:13:51.150Z,100117.12
2022-12-08T09:16:19.711Z,100116.38
2022-12-08T09:18:49.663Z,100114.75
2022-12-08T09:21:22.953Z,100113.27
2022-12-08T09:23:53.754Z,100112.46
2022-12-08T09:26:23.396Z,100106.39
2022-12-08T09:28:53.525Z,100107.50
2022-12-08T09:31:23.449Z,100105.73
2022-12-08T09:33:54.680Z,100104.89
2022-12-08T09:36:23.077Z,100097.95
2022-12-08T09:38:53.581Z,100096.31
2022-12-08T09:41:42.045Z,100093.36
2022-12-08T09:44:47.753Z,100092.09
2022-12-08T09:47:18.655Z,100090.08
2022-12-08T09:49:58.444Z,100093.48
2022-12-08T09:52:32.479Z,100089.20
2022-12-08T09:55:09.785Z,100090.12
2022-12-08T09:57:37.744Z,100089.35
2022-12-08T10:00:07.210Z,100085.58
2022-12-08T10:02:35.531Z,100082.20
2022-12-08T10:05:03.822Z,100078.45
2022-12-08T10:08:00.840Z,100077.08
2022-12-08T10:11:04.787Z,100075.15
2022-12-08T10:14:04.213Z,100075.84
2022-12-08T10:16:40.576Z,100071.76
2022-12-08T10:19:21.524Z,100071.20
2022-12-08T10:21:50.931Z,100075.31
2022-12-08T10:24:34.643Z,100072.89
2022-12-08T10:27:03.346Z,100072.70
2022-12-08T10:29:31.340Z,100072.40
2022-12-08T10:32:00.212Z,100070.34
2022-12-08T10:34:28.179Z,100075.45
2022-12-08T10:37:00.871Z,100074.89
2022-12-08T10:39:29.754Z,100069.10
2022-12-08T10:42:09.984Z,100073.38
2022-12-08T10:44:51.599Z,100072.80
2022-12-08T10:47:22.148Z,100066.51
2022-12-08T10:50:28.913Z,100066.00
2022-12-08T10:53:12.509Z,100064.38
2022-12-08T10:55:52.716Z,100062.42
2022-12-08T10:58:40.946Z,100059.71
2022-12-08T11:01:13.581Z,100061.94
2022-12-08T11:04:02.697Z,100059.04
2022-12-08T11:06:34.868Z,100059.49
2022-12-08T11:09:07.753Z,100064.94
2022-12-08T11:11:46.977Z,100060.58
2022-12-08T11:14:26.337Z,100054.44
2022-12-08T11:17:03.274Z,100053.06
2022-12-08T11:19:31.376Z,100055.56
2022-12-08T11:21:59.402Z,100052.28
2022-12-08T11:24:31.207Z,100051.72
2022-12-08T11:27:06.644Z,100048.31
2022-12-08T11:29:35.820Z,100048.77
2022-12-08T11:32:11.755Z,100050.40
2022-12-08T11:34:45.509Z,100047.72
2022-12-08T11:37:20.847Z,100052.42
2022-12-08T11:39:55.357Z,100054.04
2022-12-08T11:42:33.088Z,100052.87
2022-12-08T11:45:17.223Z,100052.24
2022-12-08T11:47:56.070Z,100055.45
2022-12-08T11:50:55.755Z,100052.67
2022-12-08T11:53:29.470Z,100051.73
2022-12-08T11:56:03.992Z,100044.19
2022-12-08T11:58:38.240Z,100037.63
2022-12-08T12:01:06.134Z,100035.02
2022-12-08T12:03:40.821Z,100029.81
2022-12-08T12:06:54.281Z,100028.36
2022-12-08T12:09:41.864Z,100025.96
2022-12-08T12:13:01.041Z,100029.08
2022-12-08T12:15:44.242Z,100019.19
2022-12-08T12:18:27.402Z,100019.73
2022-12-08T12:21:01.603Z,100023.01
2022-12-08T12:23:56.612Z,100022.45
2022-12-08T12:26:30.856Z,100023.23
2022-12-08T12:29:04.942Z,100021.40
2022-12-08T12:31:43.453Z,100015.98
2022-12-08T12:34:18.702Z,100010.98
2022-12-08T12:36:52.889Z,100005.98
2022-12-08T12:39:25.882Z,100001.27
2022-12-08T12:42:02.751Z,100002.38
2022-12-08T12:44:33.308Z,100002.52
2022-12-08T12:47:03.942Z,99998.42
2022-12-08T12:49:38.064Z,100000.52
2022-12-08T12:52:15.198Z,100001.23
2022-12-08T12:54:44.890Z,99995.12
2022-12-08T12:57:12.717Z,99994.70
2022-12-08T12:59:55.872Z,99993.90
2022-12-08T13:02:36.584Z,99995.09
2022-12-08T13:05:29.872Z,99990.04
2022-12-08T13:08:08.665Z,99992.91
2022-12-08T13:10:39.342Z,99991.58
2022-12-08T13:13:10.214Z,99996.55
2022-12-08T13:15:49.148Z,99994.23
2022-12-08T13:18:21.643Z,99993.34
2022-12-08T13:21:02.749Z,99992.05
2022-12-08T13:23:51.249Z,100001.20
2022-12-08T13:26:24.500Z,100001.11
2022-12-08T13:28:58.718Z,99998.88
2022-12-08T13:31:50.657Z,99998.57
2022-12-08T13:34:39.335Z,99996.34
2022-12-08T13:37:20.175Z,99996.27
2022-12-08T13:40:03.774Z,99995.13
2022-12-08T13:42:53.287Z,99995.48
2022-12-08T13:46:12.166Z,99993.52
2022-12-08T13:48:59.061Z,99993.70
2022-12-08T13:57:26.656Z,99983.30
2022-12-08T13:59:55.041Z,99985.80
2022-12-08T14:02:42.171Z,99984.99
2022-12-08T14:05:19.587Z,99981.45
2022-12-08T14:07:53.463Z,99981.24
2022-12-08T14:10:26.222Z,99978.14
2022-12-08T14:13:01.503Z,99976.67
2022-12-08T14:15:37.585Z,99971.77
2022-12-08T14:18:23.199Z,99970.26
2022-12-08T14:21:21.454Z,99966.52
2022-12-08T14:23:50.106Z,99963.08
2022-12-08T14:26:18.594Z,99960.92
2022-12-08T14:28:46.746Z,99963.69
2022-12-08T14:31:15.011Z,99970.02
2022-12-08T14:33:43.380Z,99974.45
2022-12-08T14:36:21.154Z,99977.70
2022-12-08T14:38:56.860Z,99978.60
2022-12-08T14:41:28.248Z,99980.20
2022-12-08T14:44:01.648Z,99982.20
2022-12-08T14:46:29.671Z,99979.64
2022-12-08T14:48:58.977Z,99976.92
2022-12-08T14:51:30.984Z,99976.41
2022-12-08T14:54:15.504Z,99972.21
2022-12-08T14:56:51.912Z,99973.12
2022-12-08T14:59:34.260Z,99977.98
2022-12-08T15:02:31.023Z,99975.63
2022-12-08T15:05:04.512Z,99977.96
2022-12-08T15:07:49.160Z,99971.80
2022-12-08T15:10:17.163Z,99974.40
2022-12-08T15:13:04.939Z,99971.77
2022-12-08T15:15:52.769Z,99974.80
2022-12-08T15:18:39.117Z,99975.63
2022-12-08T15:21:10.108Z,99975.30
2022-12-08T15:23:44.920Z,99981.28
2022-12-08T15:26:28.075Z,99980.49
2022-12-08T15:28:56.005Z,99981.06
2022-12-08T15:31:23.923Z,99978.49
2022-12-08T15:33:52.046Z,99976.94
2022-12-08T15:36:19.896Z,99981.33
2022-12-08T15:38:47.756Z,99976.83
2022-12-08T15:41:15.630Z,99973.67
2022-12-08T15:43:43.608Z,99975.38
2022-12-08T15:46:12.172Z,99976.92
2022-12-08T15:48:41.187Z,99970.54
2022-12-08T15:51:09.049Z,99973.09
2022-12-08T15:53:36.850Z,99973.94
2022-12-08T15:58:57.369Z,99973.56
2022-12-08T16:01:26.884Z,99972.10
2022-12-08T16:09:40.800Z,99971.20
2022-12-08T16:18:18.764Z,99969.84
2022-12-08T16:23:43.138Z,99969.68
2022-12-08T16:26:44.342Z,99971.77
2022-12-08T16:29:07.380Z,99969.86
2022-12-08T16:31:35.484Z,99972.17
2022-12-08T16:34:03.526Z,99969.86
2022-12-08T16:36:31.900Z,99968.44
2022-12-08T16:39:00.103Z,99971.64
2022-12-08T16:41:46.680Z,99972.02
2022-12-08T16:44:14.448Z,99975.91
2022-12-08T16:46:42.317Z,99976.09
2022-12-08T16:49:10.385Z,99974.66
2022-12-08T16:51:38.468Z,99976.36
2022-12-08T16:54:06.429Z,99973.49
2022-12-08T16:56:34.349Z,99974.24
2022-12-08T16:59:02.671Z,99969.08
2022-12-08T17:01:30.828Z,99967.55
2022-12-08T17:06:47.166Z,99960.50
2022-12-08T17:09:15.249Z,99966.00
2022-12-08T17:11:44.087Z,99964.23
2022-12-08T17:14:13.690Z,99963.23
2022-12-08T17:16:42.631Z,99967.11
2022-12-08T17:19:13.167Z,99972.09
2022-12-08T17:21:41.863Z,99966.42
2022-12-08T17:24:09.718Z,99969.90
2022-12-08T17:26:37.512Z,99970.39
2022-12-08T17:29:05.651Z,99967.92
2022-12-08T17:31:34.213Z,99968.72
2022-12-08T17:34:05.580Z,99969.16
2022-12-08T17:36:33.557Z,99971.41
2022-12-08T17:39:02.452Z,99970.48
2022-12-08T17:41:30.714Z,99971.07
2022-12-08T17:43:58.701Z,99966.89
2022-12-08T17:46:27.178Z,99967.09
2022-12-08T17:48:55.350Z,99967.54
2022-12-08T17:51:23.123Z,99968.64
2022-12-08T17:53:51.396Z,99968.21
2022-12-08T17:56:21.404Z,99969.77
2022-12-08T17:58:54.250Z,99972.20
2022-12-08T18:01:23.733Z,99975.38
2022-12-08T18:03:51.982Z,99977.94
2022-12-08T18:06:20.669Z,99977.32
2022-12-08T18:08:48.949Z,99978.55
2022-12-08T18:11:19.725Z,99976.99
2022-12-08T18:13:49.201Z,99972.85
2022-12-08T18:16:18.619Z,99972.85
2022-12-08T18:18:46.867Z,99975.88
2022-12-08T18:21:21.469Z,99979.63
2022-12-08T18:23:51.779Z,99979.63
2022-12-08T18:26:20.603Z,99980.10
2022-12-08T18:28:48.681Z,99978.09
2022-12-08T18:31:22.461Z,99974.74
2022-12-08T18:33:51.786Z,99973.81
2022-12-08T18:36:22.828Z,99975.42
2022-12-08T18:38:51.616Z,99980.59
2022-12-08T18:41:26.207Z,99980.64
2022-12-08T18:43:57.229Z,99986.16
2022-12-08T18:46:25.649Z,99981.92
2022-12-08T18:48:53.638Z,99982.36
2022-12-08T18:51:23.714Z,99980.75
2022-12-08T18:53:52.345Z,99980.05
2022-12-08T18:56:29.523Z,99978.22
2022-12-08T18:59:03.563Z,99982.45
2022-12-08T19:01:34.184Z,99979.90
2022-12-08T19:04:27.460Z,99984.69
2022-12-08T19:06:53.464Z,99985.04
2022-12-08T19:09:21.434Z,99986.02
2022-12-08T19:11:49.605Z,99979.15
2022-12-08T19:14:19.209Z,99986.72
2022-12-08T19:16:51.567Z,99984.79
2022-12-08T19:19:19.550Z,99981.98
2022-12-08T19:21:47.647Z,99984.95
2022-12-08T19:24:15.810Z,99984.20
2022-12-08T19:26:44.046Z,99982.59
2022-12-08T19:29:12.427Z,99985.61
2022-12-08T19:31:41.141Z,99987.58
2022-12-08T19:34:10.424Z,99990.52
2022-12-08T19:36:42.597Z,99987.76
2022-12-08T19:39:35.372Z,99986.06
2022-12-08T19:42:27.825Z,99987.17
2022-12-08T19:44:55.884Z,99987.80
2022-12-08T19:47:25.935Z,99987.33
2022-12-08T19:50:15.278Z,99988.33
2022-12-08T19:52:44.190Z,99989.92
2022-12-08T19:55:12.672Z,99994.39
2022-12-08T19:57:41.127Z,99991.05
2022-12-08T20:00:12.931Z,99996.05
2022-12-08T20:02:40.903Z,99998.17
2022-12-08T20:05:10.374Z,99998.48
2022-12-08T20:07:38.624Z,100000.88
2022-12-08T20:10:14.694Z,100003.10
2022-12-08T20:12:42.733Z,100009.50
2022-12-08T20:15:10.813Z,100008.13
2022-12-08T20:17:39.239Z,100010.89
2022-12-08T20:20:08.359Z,100017.69
2022-12-08T20:22:36.504Z,100016.43
2022-12-08T20:25:04.673Z,100018.18
2022-12-08T20:27:33.363Z,100021.55
2022-12-08T20:30:01.443Z,100027.35
2022-12-08T20:32:29.315Z,100027.14
2022-12-08T20:34:57.450Z,100026.73
2022-12-08T20:37:25.394Z,100029.03
2022-12-08T20:39:53.373Z,100028.23
2022-12-08T20:42:21.438Z,100029.30
2022-12-08T20:44:49.590Z,100027.98
2022-12-08T20:47:18.002Z,100024.52
2022-12-08T20:49:47.481Z,100032.20
2022-12-08T20:52:40.925Z,100029.56
2022-12-08T21:03:58.731Z,100037.73
2022-12-08T21:06:29.900Z,100037.58
2022-12-08T21:08:58.058Z,100042.20
2022-12-08T21:11:30.070Z,100045.66
2022-12-08T21:13:57.939Z,100048.25
2022-12-08T21:16:25.987Z,100048.97
2022-12-08T21:18:54.142Z,100050.86
2022-12-08T21:21:22.361Z,100053.98
2022-12-08T21:23:50.441Z,100050.70
2022-12-08T21:26:21.677Z,100049.01
2022-12-08T21:28:49.533Z,100046.36
2022-12-08T21:31:20.291Z,100046.62
2022-12-08T21:33:48.841Z,100047.63
2022-12-08T21:36:20.081Z,100052.77
2022-12-08T21:38:48.355Z,100051.75
2022-12-08T21:41:38.784Z,100049.48
2022-12-08T21:44:10.253Z,100049.75
2022-12-08T21:46:38.525Z,100054.08
2022-12-08T21:49:07.084Z,100052.52
2022-12-08T21:51:37.876Z,100055.52
2022-12-08T21:54:05.855Z,100054.59
2022-12-08T21:56:33.934Z,100056.34
2022-12-08T21:59:01.812Z,100050.91
2022-12-08T22:01:30.053Z,100053.95
2022-12-08T22:03:58.883Z,100054.77
2022-12-08T22:06:26.899Z,100051.70
2022-12-08T22:08:56.680Z,100054.63
2022-12-08T22:11:24.572Z,100050.98
2022-12-08T22:13:52.687Z,100050.54
2022-12-08T22:16:20.865Z,100049.11
2022-12-08T22:18:48.757Z,100049.77
2022-12-08T22:21:18.382Z,100052.52
2022-12-08T22:23:46.703Z,100055.23
2022-12-08T22:26:14.758Z,100055.81
2022-12-08T22:28:43.671Z,100058.30
2022-12-08T22:31:14.499Z,100058.89
2022-12-08T22:33:43.728Z,100060.66
2022-12-08T22:36:16.922Z,100063.29
2022-12-08T22:38:45.318Z,100059.24
2022-12-08T22:41:13.856Z,100057.00
2022-12-08T22:43:42.438Z,100060.94
2022-12-08T22:46:14.672Z,100061.98
2022-12-08T22:48:42.942Z,100061.86
2022-12-08T22:51:11.635Z,100059.57
2022-12-08T22:53:39.702Z,100063.81
2022-12-08T22:56:10.472Z,100065.36
2022-12-08T22:58:40.041Z,100069.98
2022-12-08T23:01:08.065Z,100067.32
2022-12-08T23:03:36.117Z,100065.73
2022-12-08T23:06:12.508Z,100066.22
2022-12-08T23:08:40.710Z,100063.48
2022-12-08T23:11:09.013Z,100058.55
2022-12-08T23:13:38.254Z,100055.98
2022-12-08T23:16:10.402Z,100056.11
2022-12-08T23:18:41.647Z,100054.94
2022-12-08T23:21:14.297Z,100057.59
2022-12-08T23:23:42.183Z,100058.66
2022-12-08T23:26:30.398Z,100061.98
2022-12-08T23:28:59.568Z,100068.29
2022-12-08T23:31:28.137Z,100073.05
2022-12-08T23:33:56.559Z,100077.67
2022-12-08T23:36:27.509Z,100078.52
2022-12-08T23:38:55.523Z,100082.62
2022-12-08T23:41:23.458Z,100081.77
2022-12-08T23:43:51.933Z,100081.27
2022-12-08T23:46:21.849Z,100084.42
2022-12-08T23:48:51.353Z,100085.17
2022-12-08T23:51:19.785Z,100086.98
2022-12-08T23:53:47.761Z,100086.88
2022-12-08T23:56:17.882Z,100087.46
2022-12-08T23:58:46.145Z,100083.50
